Time;durP1;ratioP1;P1;durP2;ratioP2;P2;SDS_P1;SDS_P2;PMS_P1;PMS_P2;Temp;Humidity;BMP_temperature;BMP_pressure;BME280_temperature;BME280_humidity;BME280_pressure;Samples;Min_cycle;Max_cycle;Signal;HPM_P1;HPM_P2
2021/09/11 00:01:49;;;;;;;15.35;10.40;;;;;;;15.01;66.43;100781.75;1721410;82;26465;-77
2021/09/11 00:04:16;;;;;;;17.50;11.20;;;;;;;14.96;66.61;100785.59;1720587;82;25778;-77
2021/09/11 00:06:43;;;;;;;14.30;10.65;;;;;;;14.92;66.58;100788.40;1688467;83;25984;-77
2021/09/11 00:09:11;;;;;;;16.93;11.53;;;;;;;14.90;66.85;100781.88;1673934;83;27372;-77
2021/09/11 00:11:38;;;;;;;16.82;11.33;;;;;;;14.87;66.77;100791.72;1697798;83;25762;-77
2021/09/11 00:14:05;;;;;;;19.12;11.48;;;;;;;14.80;66.93;100781.45;1716355;82;25959;-78
2021/09/11 00:16:32;;;;;;;22.30;13.15;;;;;;;14.73;66.84;100790.09;1688731;83;26488;-76
2021/09/11 00:18:59;;;;;;;17.57;11.60;;;;;;;14.65;67.11;100780.33;1687708;83;25910;-78
2021/09/11 00:21:26;;;;;;;15.35;10.82;;;;;;;14.58;66.96;100782.20;1720823;80;28217;-77
2021/09/11 00:23:54;;;;;;;16.80;10.85;;;;;;;14.53;67.35;100779.31;1720793;82;25750;-77
2021/09/11 00:26:21;;;;;;;17.90;11.83;;;;;;;14.51;67.49;100782.73;1658511;83;25935;-77
2021/09/11 00:28:48;;;;;;;22.35;12.15;;;;;;;14.49;67.60;100779.42;1713847;82;25854;-78
2021/09/11 00:31:15;;;;;;;23.10;12.58;;;;;;;14.49;67.55;100782.12;1698600;83;25350;-77
2021/09/11 00:33:42;;;;;;;20.72;13.10;;;;;;;14.48;68.00;100780.45;1720302;82;27520;-78
2021/09/11 00:36:09;;;;;;;19.10;12.73;;;;;;;14.48;68.12;100776.91;1651503;83;25764;-77
2021/09/11 00:38:36;;;;;;;15.48;11.30;;;;;;;14.48;68.22;100775.05;1673568;83;25892;-77
2021/09/11 00:41:03;;;;;;;24.90;12.68;;;;;;;14.49;68.29;100769.16;1735101;81;26498;-77
2021/09/11 00:43:30;;;;;;;19.67;12.23;;;;;;;14.48;68.46;100776.41;1697210;83;25810;-78
2021/09/11 00:45:57;;;;;;;24.40;13.28;;;;;;;14.47;68.65;100769.37;1709491;82;28781;-77
2021/09/11 00:48:24;;;;;;;22.27;12.80;;;;;;;14.46;68.81;100769.55;1671943;83;26019;-77
2021/09/11 00:50:51;;;;;;;16.48;11.10;;;;;;;14.44;68.70;100771.63;1720680;83;26442;-77
2021/09/11 00:53:20;;;;;;;18.65;11.65;;;;;;;14.43;68.78;100770.83;1720981;83;26115;-78
2021/09/11 00:55:48;;;;;;;16.07;11.03;;;;;;;14.40;68.58;100770.39;1652040;83;25768;-78
2021/09/11 00:58:16;;;;;;;15.70;11.38;;;;;;;14.35;68.56;100770.20;1687036;82;27542;-77
2021/09/11 01:00:43;;;;;;;17.02;11.63;;;;;;;14.25;68.47;100759.79;1720958;81;25762;-77
2021/09/11 01:03:11;;;;;;;14.47;10.58;;;;;;;14.17;68.54;100763.20;1719755;83;26559;-78
2021/09/11 01:05:39;;;;;;;16.60;11.53;;;;;;;14.12;68.57;100765.16;1688715;83;25859;-77
2021/09/11 01:08:06;;;;;;;16.17;11.28;;;;;;;14.08;68.83;100765.77;1708763;82;25832;-77
2021/09/11 01:10:35;;;;;;;17.05;11.08;;;;;;;14.01;68.86;100769.00;1720871;83;27562;-78
2021/09/11 01:13:02;;;;;;;16.17;11.78;;;;;;;13.94;69.11;100767.09;1699051;81;25350;-77
2021/09/11 01:15:37;;;;;;;15.72;10.85;;;;;;;13.91;69.16;100766.17;1721656;82;25979;-77
2021/09/11 01:18:06;;;;;;;13.75;11.28;;;;;;;13.87;69.27;100766.27;1674553;83;26470;-78
2021/09/11 01:20:35;;;;;;;17.87;11.45;;;;;;;13.82;69.16;100766.55;1720933;81;25693;-78
2021/09/11 01:23:03;;;;;;;20.05;11.38;;;;;;;13.77;69.26;100771.74;1720822;83;27625;-77
2021/09/11 01:25:30;;;;;;;14.80;11.20;;;;;;;13.72;69.51;100760.73;1688443;83;26626;-77
2021/09/11 01:27:58;;;;;;;20.77;11.40;;;;;;;13.67;69.56;100761.34;1697158;83;25711;-77
2021/09/11 01:30:25;;;;;;;16.97;11.57;;;;;;;13.63;69.56;100762.78;1720597;82;26539;-77
2021/09/11 01:32:53;;;;;;;15.28;11.43;;;;;;;13.63;69.69;100758.75;1720800;82;25937;-77
2021/09/11 01:35:20;;;;;;;16.20;11.57;;;;;;;13.62;69.79;100763.00;1655596;83;27476;-77
2021/09/11 01:37:47;;;;;;;19.60;12.00;;;;;;;13.61;69.79;100763.50;1673830;83;26697;-77
2021/09/11 01:40:14;;;;;;;15.58;11.25;;;;;;;13.62;69.93;100757.61;1716663;83;25885;-78
2021/09/11 01:42:41;;;;;;;16.70;11.75;;;;;;;13.62;70.09;100758.42;1675002;83;25872;-77
2021/09/11 01:45:15;;;;;;;16.42;12.18;;;;;;;13.63;70.36;100762.78;1697779;83;25797;-77
2021/09/11 01:47:43;;;;;;;18.27;12.50;;;;;;;13.64;70.39;100768.47;1720081;81;28154;-77
2021/09/11 01:50:14;;;;;;;16.82;12.75;;;;;;;13.60;70.49;100761.83;1696596;83;25902;-77
2021/09/11 01:52:41;;;;;;;16.62;11.45;;;;;;;13.55;70.35;100763.48;1709924;83;34870;-77
2021/09/11 01:55:11;;;;;;;16.77;11.35;;;;;;;13.48;70.22;100763.45;1668818;85;26455;-77
2021/09/11 01:57:44;;;;;;;15.87;10.97;;;;;;;13.41;70.33;100763.94;1668362;85;25917;-78
2021/09/11 02:00:15;;;;;;;17.02;11.68;;;;;;;13.37;70.32;100764.03;1647828;85;27473;-77
2021/09/11 02:02:43;;;;;;;14.73;11.22;;;;;;;13.34;70.32;100763.10;1687243;82;25902;-77
2021/09/11 02:05:12;;;;;;;20.62;13.25;;;;;;;13.32;70.48;100757.09;1643848;85;25835;-77
2021/09/11 02:07:40;;;;;;;18.10;12.20;;;;;;;13.31;70.54;100754.58;1730220;81;25923;-77
2021/09/11 02:10:09;;;;;;;18.62;12.03;;;;;;;13.32;70.67;100754.91;1709717;83;25892;-77
2021/09/11 02:12:36;;;;;;;20.02;12.35;;;;;;;13.32;70.73;100749.53;1680115;83;28142;-77
2021/09/11 02:15:05;;;;;;;20.45;12.40;;;;;;;13.30;70.66;100750.25;1696289;83;25755;-77
2021/09/11 02:17:33;;;;;;;15.65;11.78;;;;;;;13.24;70.63;100751.86;1712236;83;26575;-78
2021/09/11 02:20:00;;;;;;;18.42;12.28;;;;;;;13.18;70.70;100752.66;1690775;83;25888;-77
2021/09/11 02:22:27;;;;;;;17.87;12.30;;;;;;;13.11;70.60;100755.32;1680782;83;25964;-77
2021/09/11 02:24:54;;;;;;;19.77;12.90;;;;;;;13.01;70.37;100745.42;1718243;83;27606;-78
2021/09/11 02:27:21;;;;;;;17.98;12.73;;;;;;;12.94;70.35;100751.77;1719880;83;25863;-77
2021/09/11 02:29:49;;;;;;;20.10;13.25;;;;;;;12.88;70.49;100748.53;1709001;83;25837;-77
2021/09/11 02:32:16;;;;;;;21.87;13.88;;;;;;;12.85;70.91;100752.45;1693329;83;25870;-77
2021/09/11 02:34:43;;;;;;;16.60;12.28;;;;;;;12.88;71.42;100749.88;1624385;85;26059;-77
2021/09/11 02:37:11;;;;;;;20.32;12.55;;;;;;;12.89;71.57;100748.87;1671718;85;27550;-77
2021/09/11 02:39:39;;;;;;;22.20;12.37;;;;;;;12.90;71.57;100750.52;1697195;83;26015;-78
2021/09/11 02:42:06;;;;;;;18.00;12.05;;;;;;;12.89;71.52;100743.49;1621535;85;26635;-77
2021/09/11 02:44:33;;;;;;;16.93;12.03;;;;;;;12.87;71.50;100742.86;1710193;82;26093;-78
2021/09/11 02:47:01;;;;;;;18.15;12.03;;;;;;;12.85;71.46;100744.92;1721331;81;25775;-77
2021/09/11 02:49:28;;;;;;;17.77;12.65;;;;;;;12.81;71.41;100743.66;1739211;81;26911;-78
2021/09/11 02:51:55;;;;;;;15.90;11.97;;;;;;;12.75;71.37;100739.88;1674550;83;25900;-78
2021/09/11 02:54:22;;;;;;;19.10;12.47;;;;;;;12.71;71.38;100735.94;1722022;81;25824;-77
2021/09/11 02:56:49;;;;;;;17.85;12.15;;;;;;;12.69;71.40;100737.15;1696840;83;25961;-77
2021/09/11 02:59:16;;;;;;;14.58;12.15;;;;;;;12.64;71.48;100735.05;1736864;81;25876;-77
2021/09/11 03:01:43;;;;;;;19.60;12.18;;;;;;;12.61;71.58;100742.17;1719916;83;27468;-77
2021/09/11 03:04:10;;;;;;;17.60;12.68;;;;;;;12.57;71.56;100746.80;1684251;83;27546;-77
2021/09/11 03:06:37;;;;;;;17.60;12.25;;;;;;;12.51;71.52;100747.05;1711812;82;26534;-77
2021/09/11 03:09:05;;;;;;;17.92;12.37;;;;;;;12.43;71.80;100745.02;1721372;83;25933;-77
2021/09/11 03:11:32;;;;;;;18.00;12.45;;;;;;;12.37;72.08;100742.61;1735207;81;26573;-78
2021/09/11 03:13:59;;;;;;;18.55;13.08;;;;;;;12.32;71.93;100751.75;1654684;83;27672;-77
2021/09/11 03:16:26;;;;;;;19.12;12.25;;;;;;;12.25;71.84;100744.17;1674823;83;26503;-77
2021/09/11 03:18:53;;;;;;;15.63;12.18;;;;;;;12.17;71.84;100739.75;1720938;81;25710;-78
2021/09/11 03:21:20;;;;;;;17.40;12.10;;;;;;;12.11;71.77;100739.70;1721357;83;26560;-77
2021/09/11 03:23:47;;;;;;;18.20;12.15;;;;;;;12.06;71.59;100743.49;1688880;81;25805;-78
2021/09/11 03:26:14;;;;;;;15.95;11.55;;;;;;;11.96;71.22;100751.02;1674417;83;27517;-78
2021/09/11 03:28:41;;;;;;;16.60;11.03;;;;;;;11.85;71.20;100752.36;1716600;83;25846;-77
2021/09/11 03:31:08;;;;;;;16.45;10.80;;;;;;;11.76;71.36;100750.00;1698228;80;25874;-77
2021/09/11 03:33:36;;;;;;;17.32;12.35;;;;;;;11.63;71.62;100741.27;1658991;83;25925;-77
2021/09/11 03:36:03;;;;;;;18.40;12.85;;;;;;;11.60;72.02;100741.64;1712151;82;25792;-77
2021/09/11 03:38:30;;;;;;;17.27;11.95;;;;;;;11.62;72.28;100740.94;1722246;83;27555;-77
2021/09/11 03:40:57;;;;;;;16.97;13.00;;;;;;;11.62;72.63;100743.12;1716456;83;25738;-77
2021/09/11 03:43:24;;;;;;;16.75;12.33;;;;;;;11.57;72.69;100737.98;1688040;83;25915;-77
2021/09/11 03:45:51;;;;;;;16.82;12.65;;;;;;;11.54;72.82;100732.52;1709525;82;25978;-77
2021/09/11 03:48:18;;;;;;;19.17;11.70;;;;;;;11.51;72.70;100739.58;1719784;82;26399;-77
2021/09/11 03:50:45;;;;;;;17.30;12.50;;;;;;;11.45;72.52;100736.32;1719756;83;27555;-78
2021/09/11 03:53:12;;;;;;;13.32;11.18;;;;;;;11.40;72.88;100735.20;1623456;85;25827;-77
2021/09/11 03:55:39;;;;;;;16.82;11.63;;;;;;;11.37;72.70;100738.28;1649236;85;26514;-77
2021/09/11 03:58:08;;;;;;;18.37;12.03;;;;;;;11.35;73.11;100733.62;1648825;85;25962;-78
2021/09/11 04:00:36;;;;;;;17.02;12.28;;;;;;;11.29;73.08;100735.19;1707961;82;25928;-77
2021/09/11 04:03:03;;;;;;;18.35;11.90;;;;;;;11.23;73.39;100741.81;1672591;84;27514;-78
2021/09/11 04:05:30;;;;;;;15.35;11.95;;;;;;;11.19;73.29;100744.04;1638624;83;25797;-77
2021/09/11 04:07:57;;;;;;;16.42;11.38;;;;;;;11.14;72.99;100739.73;1693120;83;25840;-77
2021/09/11 04:10:24;;;;;;;20.25;14.10;;;;;;;11.11;73.28;100740.12;1720252;82;25984;-77
2021/09/11 04:12:51;;;;;;;14.87;11.83;;;;;;;11.13;73.84;100752.84;1665833;83;25944;-77
2021/09/11 04:15:18;;;;;;;14.60;12.03;;;;;;;11.13;73.88;100749.31;1668392;85;27662;-77
2021/09/11 04:17:45;;;;;;;16.25;11.83;;;;;;;11.09;73.72;100758.25;1647727;85;25863;-77
2021/09/11 04:20:15;;;;;;;17.12;11.40;;;;;;;11.02;73.62;100755.98;1720584;82;25761;-77
2021/09/11 04:22:42;;;;;;;15.60;11.08;;;;;;;10.99;73.46;100750.98;1622317;85;26532;-77
2021/09/11 04:25:09;;;;;;;16.65;11.63;;;;;;;10.93;73.67;100741.01;1719331;81;26039;-77
2021/09/11 04:27:36;;;;;;;19.05;13.00;;;;;;;10.90;73.96;100745.91;1722915;83;27477;-77
2021/09/11 04:30:06;;;;;;;17.17;13.10;;;;;;;10.91;74.21;100740.36;1717787;83;25902;-77
2021/09/11 04:32:33;;;;;;;21.70;14.30;;;;;;;10.92;74.55;100739.86;1626192;85;25869;-77
2021/09/11 04:35:01;;;;;;;21.42;14.98;;;;;;;10.89;74.73;100745.08;1694916;83;26724;-77
2021/09/11 04:37:28;;;;;;;20.65;14.98;;;;;;;10.91;75.20;100743.55;1720797;82;26502;-77
2021/09/11 04:39:55;;;;;;;23.45;14.75;;;;;;;10.93;75.58;100736.18;1719711;83;28287;-77
2021/09/11 04:42:23;;;;;;;21.87;14.85;;;;;;;10.94;75.41;100737.83;1679214;83;25965;-77
2021/09/11 04:44:50;;;;;;;30.27;17.05;;;;;;;10.98;75.49;100739.11;1672408;83;26046;-77
2021/09/11 04:47:17;;;;;;;22.75;15.30;;;;;;;11.03;75.60;100743.42;1710171;82;26591;-77
2021/09/11 04:49:44;;;;;;;20.72;14.18;;;;;;;11.05;75.71;100739.54;1721063;83;26031;-77
2021/09/11 04:52:11;;;;;;;22.37;14.85;;;;;;;11.06;75.76;100748.39;1652250;83;28264;-77
2021/09/11 04:54:38;;;;;;;17.02;13.35;;;;;;;11.06;75.86;100749.73;1734353;81;25841;-77
2021/09/11 04:57:05;;;;;;;18.30;13.08;;;;;;;11.06;75.95;100748.39;1696840;83;25873;-77
2021/09/11 04:59:32;;;;;;;21.20;13.90;;;;;;;11.08;75.70;100748.53;1720544;83;25855;-77
2021/09/11 05:01:59;;;;;;;22.55;13.95;;;;;;;11.09;75.82;100750.71;1651798;83;26646;-77
2021/09/11 05:04:26;;;;;;;21.10;14.25;;;;;;;11.12;75.87;100750.36;1672966;82;27341;-78
2021/09/11 05:06:54;;;;;;;24.65;14.73;;;;;;;11.16;76.01;100748.42;1720777;80;25951;-77
2021/09/11 05:09:23;;;;;;;28.67;15.55;;;;;;;11.19;76.07;100753.42;1720827;83;26424;-77
2021/09/11 05:11:50;;;;;;;20.35;14.25;;;;;;;11.23;76.49;100751.19;1652548;83;26631;-77
2021/09/11 05:14:17;;;;;;;22.40;13.28;;;;;;;11.24;76.83;100752.88;1712281;82;25829;-77
2021/09/11 05:16:45;;;;;;;17.02;12.78;;;;;;;11.26;77.15;100750.83;1719806;82;28237;-77
2021/09/11 05:19:12;;;;;;;20.17;13.30;;;;;;;11.21;77.00;100759.44;1717728;83;25588;-77
2021/09/11 05:21:39;;;;;;;19.23;14.20;;;;;;;11.23;77.05;100755.21;1651561;83;25857;-77
2021/09/11 05:24:06;;;;;;;18.87;14.13;;;;;;;11.27;77.37;100760.02;1698234;83;26577;-77
2021/09/11 05:26:33;;;;;;;16.95;12.53;;;;;;;11.32;77.60;100756.28;1719696;83;25899;-77
2021/09/11 05:29:00;;;;;;;17.12;13.20;;;;;;;11.36;77.56;100754.88;1720926;83;27492;-77
2021/09/11 05:31:27;;;;;;;20.57;13.48;;;;;;;11.43;77.69;100750.94;1652152;83;25978;-77
2021/09/11 05:33:54;;;;;;;20.23;13.95;;;;;;;11.51;77.95;100749.48;1737117;81;25784;-77
2021/09/11 05:36:21;;;;;;;17.87;13.80;;;;;;;11.58;78.57;100757.09;1720615;83;25818;-77
2021/09/11 05:38:48;;;;;;;18.67;13.50;;;;;;;11.66;78.76;100755.63;1720059;83;26471;-77
2021/09/11 05:41:15;;;;;;;20.95;13.95;;;;;;;11.73;78.79;100753.89;1658484;83;27450;-77
2021/09/11 05:43:42;;;;;;;24.90;13.75;;;;;;;11.81;79.13;100757.79;1738434;81;25896;-77
2021/09/11 05:46:09;;;;;;;17.90;14.13;;;;;;;11.88;79.34;100757.36;1720758;80;25900;-77
2021/09/11 05:48:36;;;;;;;20.23;13.88;;;;;;;11.99;80.07;100751.48;1720358;83;26489;-77
2021/09/11 05:51:03;;;;;;;21.55;14.63;;;;;;;12.12;80.55;100752.11;1657360;83;25862;-77
2021/09/11 05:53:30;;;;;;;16.77;13.55;;;;;;;12.25;80.63;100750.36;1651985;83;28316;-78
2021/09/11 05:55:57;;;;;;;19.75;13.62;;;;;;;12.39;80.72;100752.14;1720394;82;25922;-77
2021/09/11 05:58:25;;;;;;;19.95;14.55;;;;;;;12.53;80.78;100758.42;1719540;82;25864;-77
2021/09/11 06:00:52;;;;;;;20.50;13.85;;;;;;;12.69;81.13;100758.66;1665608;82;25886;-78
2021/09/11 06:03:19;;;;;;;20.80;16.17;;;;;;;12.82;81.11;100757.40;1675762;83;26007;-77
2021/09/11 06:05:46;;;;;;;24.20;15.28;;;;;;;12.93;80.90;100748.78;1720102;81;28187;-78
2021/09/11 06:08:13;;;;;;;21.37;14.20;;;;;;;13.05;80.98;100745.37;1720413;83;26468;-78
2021/09/11 06:10:40;;;;;;;24.02;14.98;;;;;;;13.19;80.98;100746.27;1665905;83;25769;-78
2021/09/11 06:13:08;;;;;;;21.00;15.00;;;;;;;13.32;80.89;100741.46;1651297;83;26403;-78
2021/09/11 06:15:35;;;;;;;27.87;16.93;;;;;;;13.46;81.10;100743.99;1720042;82;26003;-78
2021/09/11 06:18:02;;;;;;;27.40;17.10;;;;;;;13.62;81.37;100742.81;1720430;83;27636;-77
2021/09/11 06:20:29;;;;;;;20.90;16.40;;;;;;;13.80;81.43;100753.81;1692762;84;25817;-78
2021/09/11 06:22:56;;;;;;;22.70;15.13;;;;;;;13.96;81.09;100756.66;1668950;83;25778;-80
2021/09/11 06:25:23;;;;;;;26.05;16.93;;;;;;;14.12;81.12;100752.20;1722361;81;25831;-80
2021/09/11 06:27:54;;;;;;;26.00;17.17;;;;;;;14.27;80.94;100748.80;1723142;83;25826;-80
2021/09/11 06:30:20;;;;;;;28.57;15.93;;;;;;;14.41;80.49;100756.70;1694048;83;28321;-79
2021/09/11 06:32:47;;;;;;;29.57;16.73;;;;;;;14.56;80.45;100753.81;1647774;83;25304;-80
2021/09/11 06:35:14;;;;;;;22.45;15.63;;;;;;;14.70;80.37;100754.09;1698434;83;25793;-80
2021/09/11 06:37:41;;;;;;;21.35;14.75;;;;;;;14.85;80.17;100745.77;1715707;81;25773;-80
2021/09/11 06:40:09;;;;;;;20.12;14.30;;;;;;;14.98;80.42;100743.88;1693468;83;25837;-80
2021/09/11 06:42:36;;;;;;;22.32;14.30;;;;;;;15.11;79.69;100749.75;1625362;85;27573;-80
2021/09/11 06:45:03;;;;;;;21.37;14.70;;;;;;;15.24;79.39;100755.11;1715436;81;26412;-80
2021/09/11 06:47:30;;;;;;;20.55;13.75;;;;;;;15.37;79.21;100756.41;1721748;83;25972;-80
2021/09/11 06:49:57;;;;;;;22.52;14.07;;;;;;;15.51;78.72;100758.55;1722151;82;25967;-80
2021/09/11 06:52:24;;;;;;;22.48;14.00;;;;;;;15.64;78.33;100755.78;1675012;84;25880;-80
2021/09/11 06:54:51;;;;;;;20.75;14.13;;;;;;;15.76;78.09;100758.93;1675425;82;27649;-80
2021/09/11 06:57:18;;;;;;;18.82;13.68;;;;;;;15.87;77.82;100759.59;1711306;82;25905;-80
2021/09/11 06:59:45;;;;;;;20.92;14.35;;;;;;;15.98;77.62;100755.37;1711122;82;25361;-80
2021/09/11 07:02:12;;;;;;;25.05;14.98;;;;;;;16.10;77.17;100752.30;1659634;82;26476;-80
2021/09/11 07:04:39;;;;;;;21.75;14.20;;;;;;;16.22;76.83;100754.58;1708869;81;25842;-80
2021/09/11 07:07:08;;;;;;;18.80;14.63;;;;;;;16.33;76.58;100761.16;1726380;82;27583;-80
2021/09/11 07:09:35;;;;;;;19.35;13.98;;;;;;;16.44;76.43;100762.63;1771722;79;25960;-79
2021/09/11 07:12:02;;;;;;;24.77;14.28;;;;;;;16.56;76.29;100765.45;1710146;82;25269;-78
2021/09/11 07:14:29;;;;;;;22.32;13.43;;;;;;;16.67;76.09;100763.38;1735394;81;25883;-78
2021/09/11 07:16:56;;;;;;;16.85;12.33;;;;;;;16.78;75.77;100759.44;1725394;82;25752;-78
2021/09/11 07:19:23;;;;;;;50.85;29.45;;;;;;;16.87;75.33;100760.78;1773040;79;28261;-78
2021/09/11 07:21:50;;;;;;;23.60;16.60;;;;;;;16.96;75.12;100758.61;1694718;82;25948;-79
2021/09/11 07:24:17;;;;;;;23.27;14.33;;;;;;;17.06;74.88;100764.35;1703709;82;26064;-77
2021/09/11 07:26:44;;;;;;;19.17;12.65;;;;;;;17.17;74.90;100767.63;1740405;81;26406;-78
2021/09/11 07:29:11;;;;;;;22.85;13.50;;;;;;;17.26;74.59;100763.58;1730108;80;25822;-77
2021/09/11 07:31:38;;;;;;;21.17;11.38;;;;;;;17.37;74.30;100759.28;1681935;82;28696;-77
2021/09/11 07:34:05;;;;;;;17.70;12.40;;;;;;;17.47;74.06;100758.24;1739312;81;25820;-78
2021/09/11 07:36:33;;;;;;;19.85;12.53;;;;;;;17.54;73.61;100754.94;1712839;83;26128;-77
2021/09/11 07:39:00;;;;;;;17.27;12.30;;;;;;;17.64;73.29;100751.17;1737394;81;25849;-77
2021/09/11 07:41:27;;;;;;;18.32;12.40;;;;;;;17.72;73.28;100750.84;1718084;80;25954;-78
2021/09/11 07:43:54;;;;;;;19.30;12.00;;;;;;;17.83;72.90;100758.72;1710676;82;27607;-78
2021/09/11 07:46:21;;;;;;;17.45;11.70;;;;;;;17.91;72.64;100755.68;1705804;82;25359;-77
2021/09/11 07:48:48;;;;;;;18.23;12.53;;;;;;;18.01;72.76;100750.00;1755950;81;25744;-78
2021/09/11 07:51:15;;;;;;;21.20;12.18;;;;;;;18.11;72.82;100747.54;1651795;83;26531;-78
2021/09/11 07:53:42;;;;;;;21.42;11.35;;;;;;;18.22;72.48;100752.17;1698483;83;25774;-77
2021/09/11 07:56:09;;;;;;;18.00;11.85;;;;;;;18.32;71.61;100751.61;1731861;82;28342;-78
2021/09/11 07:58:36;;;;;;;17.67;11.85;;;;;;;18.40;70.88;100748.55;1704389;82;26570;-78
2021/09/11 08:01:03;;;;;;;20.15;10.68;;;;;;;18.48;71.10;100753.66;1690439;82;25876;-78
2021/09/11 08:03:30;;;;;;;17.20;10.95;;;;;;;18.57;70.99;100751.42;1724363;82;26498;-78
2021/09/11 08:05:57;;;;;;;16.48;9.75;;;;;;;18.65;70.42;100758.68;1731308;81;26300;-78
2021/09/11 08:08:24;;;;;;;18.70;10.78;;;;;;;18.75;70.37;100757.58;1685361;83;27577;-78
2021/09/11 08:10:51;;;;;;;13.75;10.20;;;;;;;18.84;70.25;100752.63;1657747;82;26071;-78
2021/09/11 08:13:19;;;;;;;14.98;9.98;;;;;;;18.95;69.70;100758.55;1697538;83;25808;-78
2021/09/11 08:15:46;;;;;;;17.00;10.60;;;;;;;19.04;69.73;100754.42;1727839;82;26594;-78
2021/09/11 08:18:13;;;;;;;18.10;12.25;;;;;;;19.12;69.30;100756.76;1704203;82;25849;-78
2021/09/11 08:20:40;;;;;;;20.23;10.30;;;;;;;19.20;68.45;100749.06;1696362;82;28657;-78
2021/09/11 08:23:07;;;;;;;21.48;11.88;;;;;;;19.29;69.08;100750.88;1703862;82;25851;-78
2021/09/11 08:25:34;;;;;;;15.63;10.58;;;;;;;19.40;68.70;100750.06;1728728;81;25800;-79
2021/09/11 08:28:01;;;;;;;15.72;10.32;;;;;;;19.51;68.35;100747.02;1704047;82;25938;-78
2021/09/11 08:30:28;;;;;;;17.82;11.63;;;;;;;19.61;68.82;100744.52;1651561;83;25889;-78
2021/09/11 08:32:55;;;;;;;18.55;10.90;;;;;;;19.71;68.46;100744.18;1728484;82;27600;-78
2021/09/11 08:35:22;;;;;;;17.60;10.15;;;;;;;19.81;68.25;100744.36;1730655;81;25836;-79
2021/09/11 08:37:49;;;;;;;14.80;9.70;;;;;;;19.92;68.21;100748.09;1704302;82;26651;-79
2021/09/11 08:40:16;;;;;;;18.15;9.95;;;;;;;19.99;67.84;100744.14;1692848;82;25866;-78
2021/09/11 08:42:43;;;;;;;14.10;9.50;;;;;;;20.08;67.42;100742.40;1764959;79;25925;-78
2021/09/11 08:45:16;;;;;;;13.62;8.80;;;;;;;20.15;66.95;100741.69;1704625;80;27464;-79
2021/09/11 08:47:48;;;;;;;15.58;8.70;;;;;;;20.21;67.20;100742.13;1769533;79;25835;-79
2021/09/11 08:50:17;;;;;;;22.58;9.55;;;;;;;20.31;68.03;100743.11;1685505;80;26506;-79
2021/09/11 08:52:48;;;;;;;15.23;8.40;;;;;;;20.42;67.82;100748.98;1732031;80;26501;-79
2021/09/11 08:55:17;;;;;;;14.23;9.40;;;;;;;20.54;67.11;100748.91;1755856;80;25897;-79
2021/09/11 08:58:06;;;;;;;14.35;10.10;;;;;;;20.62;66.16;100743.05;1723286;80;28827;-79
2021/09/11 09:00:43;;;;;;;16.90;8.58;;;;;;;20.68;65.97;100746.96;1679896;80;25839;-79
2021/09/11 09:03:34;;;;;;;14.58;9.18;;;;;;;20.76;65.85;100740.28;1703256;82;25391;-79
2021/09/11 09:06:21;;;;;;;14.95;8.45;;;;;;;20.85;65.88;100737.95;1757175;80;25858;-79
2021/09/11 09:08:52;;;;;;;12.80;9.30;;;;;;;20.93;65.57;100741.61;1716617;80;25783;-79
2021/09/11 09:11:32;;;;;;;41.08;26.40;;;;;;;20.98;64.78;100742.48;1709551;81;27516;-79
2021/09/11 09:14:03;;;;;;;20.15;9.60;;;;;;;21.08;64.71;100741.85;1728085;80;25859;-78
2021/09/11 09:16:33;;;;;;;;;;;;;;;21.18;63.87;100733.27;1756447;80;25942;-79
2021/09/11 09:19:04;;;;;;;15.40;8.08;;;;;;;21.25;63.84;100742.09;1682961;82;25799;-79
2021/09/11 09:21:33;;;;;;;12.20;7.85;;;;;;;21.30;64.38;100739.41;1706087;83;25763;-79
2021/09/11 09:24:04;;;;;;;20.92;9.68;;;;;;;21.37;63.91;100737.33;1706565;81;27552;-79
2021/09/11 09:26:52;;;;;;;16.95;8.50;;;;;;;21.47;63.49;100736.08;1732068;81;25840;-79
2021/09/11 09:29:19;;;;;;;14.98;7.10;;;;;;;21.58;63.72;100742.47;1646828;83;25865;-79
2021/09/11 09:31:50;;;;;;;13.20;7.10;;;;;;;21.67;62.82;100736.85;1712701;82;25912;-79
2021/09/11 09:34:38;;;;;;;9.65;7.95;;;;;;;21.77;62.77;100734.79;1732464;81;26558;-79
2021/09/11 09:37:10;;;;;;;14.13;7.70;;;;;;;21.85;62.49;100736.55;1704849;83;28130;-79
2021/09/11 09:39:47;;;;;;;12.78;6.87;;;;;;;21.94;61.37;100738.27;1679835;82;26228;-79
2021/09/11 09:42:17;;;;;;;9.18;6.15;;;;;;;22.05;60.63;100738.63;1711045;82;25773;-79
2021/09/11 09:44:54;;;;;;;12.47;7.20;;;;;;;22.15;61.02;100735.45;1703604;82;26479;-80
2021/09/11 09:47:23;;;;;;;13.72;6.95;;;;;;;22.28;61.34;100736.95;1729018;82;25809;-80
2021/09/11 09:50:14;;;;;;;11.95;6.67;;;;;;;22.36;60.94;100733.73;1672236;82;27494;-79
2021/09/11 09:52:41;;;;;;;8.85;6.45;;;;;;;22.43;59.66;100732.98;1662824;83;26022;-79
2021/09/11 09:55:09;;;;;;;12.37;7.12;;;;;;;22.48;59.81;100725.34;1717146;81;25740;-80
2021/09/11 09:57:37;;;;;;;9.13;6.47;;;;;;;22.53;59.29;100726.23;1682555;82;26528;-79
2021/09/11 10:00:06;;;;;;;12.73;5.92;;;;;;;22.54;59.08;100729.22;1704666;83;25771;-79
2021/09/11 10:02:33;;;;;;;8.15;6.05;;;;;;;22.60;59.79;100728.23;1680124;82;28202;-79
2021/09/11 10:05:00;;;;;;;10.48;6.45;;;;;;;22.69;58.44;100724.47;1708404;82;25772;-78
2021/09/11 10:07:28;;;;;;;8.48;6.10;;;;;;;22.79;58.31;100721.25;1703788;81;25838;-79
2021/09/11 10:09:56;;;;;;;10.32;6.03;;;;;;;22.82;57.81;100720.70;1731623;82;26254;-79
2021/09/11 10:12:41;;;;;;;10.05;6.45;;;;;;;22.85;57.47;100713.90;1686871;83;26586;-79
2021/09/11 10:15:33;;;;;;;8.70;5.28;;;;;;;22.92;58.62;100723.48;1681599;82;28009;-80
2021/09/11 10:17:59;;;;;;;12.43;6.62;;;;;;;23.00;57.75;100718.08;1711089;82;25402;-80
2021/09/11 10:20:26;;;;;;;11.03;5.97;;;;;;;23.07;57.98;100717.84;1727163;81;26606;-79
2021/09/11 10:23:07;;;;;;;10.75;6.40;;;;;;;23.15;57.83;100718.70;1662666;84;26507;-79
2021/09/11 10:25:47;;;;;;;11.18;6.70;;;;;;;23.23;57.23;100721.73;1704980;82;26571;-79
2021/09/11 10:28:18;;;;;;;12.55;6.55;;;;;;;23.29;57.37;100717.94;1681303;82;27970;-79
2021/09/11 10:31:06;;;;;;;;;;;;;;;23.36;57.52;100714.45;1734315;82;26584;-78
2021/09/11 10:33:51;;;;;;;12.30;6.97;;;;;;;23.42;56.48;100707.91;1721993;82;25855;-79
2021/09/11 10:36:36;;;;;;;13.20;6.58;;;;;;;23.47;57.02;100705.20;1654564;82;25709;-79
2021/09/11 10:39:10;;;;;;;9.68;6.87;;;;;;;23.59;56.90;100701.66;1729862;82;25702;-79
2021/09/11 10:41:37;;;;;;;9.00;6.53;;;;;;;23.68;56.38;100700.59;1706530;83;28166;-79
2021/09/11 10:44:08;;;;;;;6.85;5.85;;;;;;;23.75;55.96;100702.53;1676870;82;25662;-78
2021/09/11 10:46:50;;;;;;;9.30;6.65;;;;;;;23.78;56.63;100703.34;1634220;83;26005;-79
2021/09/11 10:49:32;;;;;;;10.13;6.50;;;;;;;23.82;56.53;100703.64;1726582;82;25919;-79
2021/09/11 10:52:09;;;;;;;10.25;6.22;;;;;;;23.87;55.06;100696.25;1717245;83;25944;-79
2021/09/11 10:54:42;;;;;;;10.50;6.42;;;;;;;23.92;54.95;100692.16;1637542;85;27511;-80
2021/09/11 10:57:16;;;;;;;9.40;5.80;;;;;;;23.96;55.68;100691.88;1673202;82;26443;-79
2021/09/11 10:59:50;;;;;;;9.53;6.22;;;;;;;24.06;56.10;100692.48;1671298;85;25840;-79
2021/09/11 11:02:39;;;;;;;10.70;5.80;;;;;;;24.16;53.98;100699.33;1697256;83;25964;-79
2021/09/11 11:05:11;;;;;;;13.70;6.17;;;;;;;24.19;54.35;100692.73;1649368;82;25854;-80
2021/09/11 11:07:47;;;;;;;13.72;6.20;;;;;;;24.20;54.38;100688.92;1670887;83;27481;-79
2021/09/11 11:10:21;;;;;;;11.53;6.28;;;;;;;24.25;54.70;100688.91;1697316;83;25776;-79
2021/09/11 11:12:50;;;;;;;14.80;6.17;;;;;;;24.32;54.62;100682.61;1720734;83;26588;-79
2021/09/11 11:15:27;;;;;;;9.45;5.83;;;;;;;24.42;54.91;100687.27;1679730;82;26459;-79
2021/09/11 11:17:54;;;;;;;9.03;5.92;;;;;;;24.48;54.36;100686.98;1698324;83;25542;-79
2021/09/11 11:20:28;;;;;;;8.93;5.58;;;;;;;24.54;53.91;100686.42;1724735;83;27614;-79